createdAt,value
2022-10-03T00:01:33.328Z,6.05
2022-10-03T00:04:41.944Z,2.78
2022-10-03T00:07:36.601Z,3.45
2022-10-03T00:10:29.344Z,1.48
2022-10-03T00:13:25.808Z,2.85
2022-10-03T00:16:14.074Z,2.22
2022-10-03T00:18:49.714Z,1.70
2022-10-03T00:21:47.598Z,1.55
2022-10-03T00:24:24.332Z,2.92
2022-10-03T00:26:51.171Z,1.48
2022-10-03T00:29:20.959Z,1.45
2022-10-03T00:32:19.729Z,2.55
2022-10-03T00:35:08.865Z,0.93
2022-10-03T00:38:07.841Z,1.13
2022-10-03T00:40:55.024Z,1.38
2022-10-03T00:43:43.776Z,1.70
2022-10-03T00:46:31.199Z,1.55
2022-10-03T00:49:22.226Z,1.60
2022-10-03T00:52:10.806Z,2.58
2022-10-03T00:54:46.862Z,2.67
2022-10-03T00:57:37.983Z,3.03
2022-10-03T01:00:25.257Z,2.22
2022-10-03T01:02:52.498Z,1.10
2022-10-03T01:05:21.924Z,2.90
2022-10-03T01:08:27.923Z,1.30
2022-10-03T01:11:12.941Z,2.95
2022-10-03T01:14:01.613Z,1.10
2022-10-03T01:16:41.728Z,1.80
2022-10-03T01:19:43.502Z,2.50
2022-10-03T01:22:27.967Z,2.30
2022-10-03T01:25:19.039Z,2.05
2022-10-03T01:28:34.425Z,1.30
2022-10-03T01:31:06.455Z,1.30
2022-10-03T01:33:54.384Z,1.48
2022-10-03T01:36:29.728Z,1.05
2022-10-03T01:39:02.042Z,2.03
2022-10-03T01:41:59.312Z,1.52
2022-10-03T01:44:28.951Z,2.83
2022-10-03T01:47:26.492Z,1.98
2022-10-03T01:50:20.030Z,1.20
2022-10-03T01:52:52.695Z,1.75
2022-10-03T01:55:42.154Z,0.95
2022-10-03T01:58:11.938Z,1.73
2022-10-03T02:01:10.532Z,2.80
2022-10-03T02:03:57.505Z,1.55
2022-10-03T02:06:35.630Z,2.10
2022-10-03T02:09:24.243Z,1.50
2022-10-03T02:11:50.994Z,1.90
2022-10-03T02:14:31.939Z,1.88
2022-10-03T02:17:01.799Z,2.08
2022-10-03T02:19:35.692Z,1.73
2022-10-03T02:22:03.236Z,1.48
2022-10-03T02:24:30.085Z,2.30
2022-10-03T02:27:21.445Z,1.13
2022-10-03T02:32:56.081Z,2.00
2022-10-03T02:35:56.624Z,1.55
2022-10-03T02:38:45.301Z,1.50
2022-10-03T02:41:19.194Z,1.15
2022-10-03T02:44:23.487Z,1.77
2022-10-03T02:47:24.383Z,1.20
2022-10-03T02:50:09.632Z,1.20
2022-10-03T02:53:01.016Z,2.40
2022-10-03T02:58:41.115Z,7.57
2022-10-03T03:01:44.986Z,1.45
2022-10-03T03:04:37.636Z,1.85
2022-10-03T03:07:13.236Z,3.25
2022-10-03T03:09:58.533Z,1.50
2022-10-03T03:12:28.283Z,0.80
2022-10-03T03:15:13.512Z,1.33
2022-10-03T03:17:47.139Z,2.55
2022-10-03T03:20:32.608Z,1.25
2022-10-03T03:23:52.941Z,1.02
2022-10-03T03:26:22.710Z,0.80
2022-10-03T03:29:14.731Z,1.38
2022-10-03T03:32:02.364Z,1.02
2022-10-03T03:34:31.919Z,2.42
2022-10-03T03:37:11.308Z,2.22
2022-10-03T03:40:10.365Z,1.67
2022-10-03T03:43:08.963Z,0.70
2022-10-03T03:45:56.117Z,1.27
2022-10-03T03:48:41.322Z,1.00
2022-10-03T03:51:28.571Z,2.70
2022-10-03T03:54:08.061Z,0.68
2022-10-03T03:56:52.684Z,0.90
2022-10-03T03:59:31.431Z,2.58
2022-10-03T04:02:48.286Z,3.85
2022-10-03T04:05:53.571Z,1.92
2022-10-03T04:08:38.310Z,0.73
2022-10-03T04:11:23.702Z,1.88
2022-10-03T04:14:28.885Z,1.20
2022-10-03T04:17:38.930Z,0.50
2022-10-03T04:20:31.626Z,0.75
2022-10-03T04:23:32.241Z,0.85
2022-10-03T04:26:22.639Z,1.37
2022-10-03T04:29:17.367Z,1.40
2022-10-03T04:31:49.878Z,0.70
2022-10-03T04:34:34.919Z,1.52
2022-10-03T04:37:16.895Z,1.83
2022-10-03T04:40:15.730Z,3.58
2022-10-03T04:42:42.593Z,5.03
2022-10-03T04:45:15.577Z,7.72
2022-10-03T04:47:50.512Z,2.95
2022-10-03T04:51:25.215Z,11.20
2022-10-03T04:54:16.392Z,5.22
2022-10-03T04:56:43.144Z,6.03
2022-10-03T04:59:41.291Z,5.78
2022-10-03T05:02:15.452Z,7.03
2022-10-03T05:05:15.202Z,8.60
2022-10-03T05:07:51.135Z,5.65
2022-10-03T05:10:30.693Z,3.35
2022-10-03T05:13:11.840Z,3.97
2022-10-03T05:16:09.608Z,3.85
2022-10-03T05:18:52.963Z,6.82
2022-10-03T05:21:29.157Z,2.67
2022-10-03T05:24:04.815Z,5.85
2022-10-03T05:27:05.819Z,4.45
2022-10-03T05:29:44.294Z,16.25
2022-10-03T05:32:18.084Z,4.53
2022-10-03T05:35:15.806Z,10.40
2022-10-03T05:38:15.819Z,9.90
2022-10-03T05:41:18.173Z,5.13
2022-10-03T05:44:23.029Z,9.48
2022-10-03T05:47:34.835Z,8.55
2022-10-03T05:50:05.531Z,7.53
2022-10-03T05:52:56.609Z,18.73
2022-10-03T05:55:35.059Z,3.65
2022-10-03T05:58:05.588Z,3.17
2022-10-03T06:01:11.224Z,3.63
2022-10-03T06:04:23.444Z,4.45
2022-10-03T06:07:29.125Z,3.05
2022-10-03T06:10:43.307Z,4.30
2022-10-03T06:13:24.260Z,3.17
2022-10-03T06:15:59.561Z,3.10
2022-10-03T06:18:32.553Z,2.55
2022-10-03T06:21:08.557Z,5.10
2022-10-03T06:23:59.721Z,4.80
2022-10-03T06:27:03.609Z,6.05
2022-10-03T06:29:54.770Z,7.80
2022-10-03T06:32:52.258Z,6.00
2022-10-03T06:35:49.854Z,12.73
2022-10-03T06:38:43.966Z,4.15
2022-10-03T06:41:42.418Z,5.95
2022-10-03T06:44:27.986Z,5.78
2022-10-03T06:47:28.831Z,2.72
2022-10-03T06:50:01.559Z,5.47
2022-10-03T06:52:49.455Z,3.17
2022-10-03T06:55:54.045Z,3.80
2022-10-03T06:58:27.494Z,4.50
2022-10-03T07:01:12.631Z,1.70
2022-10-03T07:04:17.633Z,3.42
2022-10-03T07:07:05.492Z,5.38
2022-10-03T07:10:03.318Z,2.53
2022-10-03T07:12:52.798Z,2.08
2022-10-03T07:16:02.202Z,7.07
2022-10-03T07:18:33.007Z,5.10
2022-10-03T07:21:36.983Z,2.22
2022-10-03T07:24:04.233Z,2.20
2022-10-03T07:26:49.472Z,3.65
2022-10-03T07:29:24.152Z,1.45
2022-10-03T07:32:00.069Z,3.35
2022-10-03T07:34:54.097Z,1.20
2022-10-03T07:38:12.811Z,1.38
2022-10-03T07:40:52.419Z,2.47
2022-10-03T07:43:31.647Z,2.22
2022-10-03T07:46:33.564Z,2.63
2022-10-03T07:49:51.067Z,3.25
2022-10-03T07:52:23.740Z,1.70
2022-10-03T07:55:08.175Z,1.23
2022-10-03T07:57:56.204Z,2.75
2022-10-03T08:00:30.119Z,3.72
2022-10-03T08:03:08.989Z,1.33
2022-10-03T08:06:06.725Z,2.08
2022-10-03T08:08:42.703Z,1.55
2022-10-03T08:11:28.205Z,2.25
2022-10-03T08:14:08.884Z,1.00
2022-10-03T08:17:07.084Z,2.15
2022-10-03T08:20:11.424Z,2.25
2022-10-03T08:23:08.130Z,0.93
2022-10-03T08:26:08.784Z,1.67
2022-10-03T08:28:59.787Z,5.63
2022-10-03T08:32:13.867Z,3.15
2022-10-03T08:34:58.744Z,1.35
2022-10-03T08:37:37.598Z,1.00
2022-10-03T08:40:04.564Z,0.77
2022-10-03T08:42:43.469Z,1.00
2022-10-03T08:45:29.620Z,1.73
2022-10-03T08:48:33.806Z,0.60
2022-10-03T08:51:06.527Z,0.80
2022-10-03T08:53:54.467Z,0.90
2022-10-03T08:56:28.109Z,0.70
2022-10-03T08:59:25.201Z,0.80
2022-10-03T09:02:01.009Z,2.50
2022-10-03T09:05:18.573Z,0.70
2022-10-03T09:08:17.418Z,0.80
2022-10-03T09:11:08.561Z,1.73
2022-10-03T09:13:35.990Z,1.13
2022-10-03T09:16:30.658Z,1.10
2022-10-03T09:19:19.295Z,1.13
2022-10-03T09:22:10.351Z,1.25
2022-10-03T09:24:52.065Z,1.33
2022-10-03T09:27:38.698Z,0.73
2022-10-03T09:30:17.335Z,1.13
2022-10-03T09:32:59.340Z,0.98
2022-10-03T09:36:04.707Z,1.35
2022-10-03T09:38:47.889Z,1.10
2022-10-03T09:41:33.703Z,0.95
2022-10-03T09:44:24.332Z,1.63
2022-10-03T09:47:23.441Z,2.63
2022-10-03T09:50:12.045Z,1.50
2022-10-03T09:53:01.225Z,1.63
2022-10-03T09:55:55.919Z,2.33
2022-10-03T09:58:56.719Z,2.13
2022-10-03T10:01:33.837Z,1.38
2022-10-03T10:04:53.509Z,2.00
2022-10-03T10:07:44.789Z,1.53
2022-10-03T10:10:48.926Z,1.60
2022-10-03T10:13:49.746Z,1.67
2022-10-03T10:16:32.792Z,1.40
2022-10-03T10:19:37.094Z,3.53
2022-10-03T10:22:36.288Z,1.20
2022-10-03T10:25:42.619Z,1.35
2022-10-03T10:28:12.593Z,1.55
2022-10-03T10:31:02.865Z,1.75
2022-10-03T10:33:42.067Z,1.38
2022-10-03T10:36:46.774Z,2.55
2022-10-03T10:39:28.911Z,1.10
2022-10-03T10:42:26.643Z,1.75
2022-10-03T10:45:30.678Z,1.42
2022-10-03T10:48:09.731Z,1.27
2022-10-03T10:51:05.465Z,1.10
2022-10-03T10:54:09.905Z,1.70
2022-10-03T10:57:14.553Z,1.70
2022-10-03T11:00:02.952Z,1.65
2022-10-03T11:03:04.504Z,2.47
2022-10-03T11:05:34.817Z,1.77
2022-10-03T11:08:19.750Z,1.20
2022-10-03T11:11:19.322Z,1.20
2022-10-03T11:14:30.354Z,1.17
2022-10-03T11:17:19.009Z,1.83
2022-10-03T11:20:13.490Z,2.58
2022-10-03T11:23:11.235Z,1.33
2022-10-03T11:25:59.501Z,3.38
2022-10-03T11:28:45.059Z,1.25
2022-10-03T11:31:30.476Z,1.00
2022-10-03T11:34:22.138Z,1.17
2022-10-03T11:37:04.143Z,1.38
2022-10-03T11:39:42.812Z,2.63
2022-10-03T11:42:51.167Z,1.75
2022-10-03T11:45:26.596Z,1.35
2022-10-03T11:47:59.566Z,1.45
2022-10-03T11:50:35.682Z,1.13
2022-10-03T11:53:25.707Z,2.35
2022-10-03T11:55:55.417Z,1.98
2022-10-03T11:58:48.257Z,0.88
2022-10-03T12:01:34.079Z,2.03
2022-10-03T12:04:38.473Z,1.20
2022-10-03T12:07:38.198Z,1.52
2022-10-03T12:10:31.367Z,0.80
2022-10-03T12:12:59.864Z,1.63
2022-10-03T12:15:35.714Z,1.15
2022-10-03T12:18:08.286Z,1.40
2022-10-03T12:21:01.094Z,2.17
2022-10-03T12:24:05.612Z,1.00
2022-10-03T12:26:49.675Z,0.82
2022-10-03T12:29:21.317Z,1.05
2022-10-03T12:31:56.420Z,1.05
2022-10-03T12:34:29.949Z,1.58
2022-10-03T12:37:00.074Z,1.05
2022-10-03T12:39:45.310Z,2.17
2022-10-03T12:42:41.700Z,0.80
2022-10-03T12:45:29.354Z,0.90
2022-10-03T12:48:14.314Z,1.48
2022-10-03T12:51:02.431Z,1.55
2022-10-03T12:53:38.975Z,2.10
2022-10-03T12:56:21.808Z,1.08
2022-10-03T12:59:01.254Z,1.33
2022-10-03T13:01:34.231Z,1.30
2022-10-03T13:04:10.160Z,1.48
2022-10-03T13:07:15.647Z,2.70
2022-10-03T13:10:15.369Z,2.45
2022-10-03T13:12:53.525Z,0.77
2022-10-03T13:15:45.087Z,1.40
2022-10-03T13:18:11.967Z,1.40
2022-10-03T13:21:13.045Z,0.98
2022-10-03T13:24:02.710Z,1.38
2022-10-03T13:27:14.253Z,1.77
2022-10-03T13:29:45.336Z,0.70
2022-10-03T13:32:42.667Z,1.27
2022-10-03T13:35:46.640Z,1.20
2022-10-03T13:38:28.703Z,0.95
2022-10-03T13:41:07.767Z,2.45
2022-10-03T13:43:39.046Z,1.40
2022-10-03T13:46:27.764Z,1.50
2022-10-03T13:49:11.353Z,1.92
2022-10-03T13:52:22.307Z,5.53
2022-10-03T13:54:52.258Z,1.58
2022-10-03T13:57:28.735Z,1.63
2022-10-03T14:00:20.033Z,1.58
2022-10-03T14:05:27.467Z,1.98
2022-10-03T14:08:09.411Z,2.38
2022-10-03T14:10:49.193Z,2.75
2022-10-03T14:13:43.801Z,2.78
2022-10-03T14:16:27.618Z,1.77
2022-10-03T14:19:00.584Z,1.13
2022-10-03T14:21:40.372Z,1.77
2022-10-03T14:24:37.045Z,1.98
2022-10-03T14:27:16.353Z,2.28
2022-10-03T14:30:07.687Z,3.28
2022-10-03T14:35:34.566Z,3.22
2022-10-03T14:38:52.667Z,1.13
2022-10-03T14:41:34.287Z,4.00
2022-10-03T14:44:16.239Z,2.10
2022-10-03T14:46:50.964Z,1.95
2022-10-03T14:52:27.249Z,1.35
2022-10-03T14:55:02.911Z,4.25
2022-10-03T14:57:52.856Z,1.27
2022-10-03T15:00:27.531Z,4.70
2022-10-03T15:05:32.678Z,3.63
2022-10-03T15:07:59.805Z,2.65
2022-10-03T15:10:29.412Z,1.27
2022-10-03T15:13:05.626Z,1.40
2022-10-03T15:15:38.820Z,6.18
2022-10-03T15:18:08.008Z,2.13
2022-10-03T15:20:38.335Z,3.10
2022-10-03T15:23:18.734Z,1.43
2022-10-03T15:25:53.355Z,2.27
2022-10-03T15:28:37.856Z,1.88
2022-10-03T15:31:14.605Z,1.90
2022-10-03T15:33:44.110Z,1.55
2022-10-03T15:36:17.493Z,9.18
2022-10-03T15:38:49.582Z,3.67
2022-10-03T15:41:22.048Z,1.75
2022-10-03T15:44:22.428Z,4.93
2022-10-03T15:46:57.227Z,1.00
2022-10-03T15:49:31.274Z,3.60
2022-10-03T15:52:21.519Z,3.45
2022-10-03T15:55:03.157Z,4.32
2022-10-03T15:57:47.492Z,3.42
2022-10-03T16:00:28.749Z,10.55
2022-10-03T16:05:29.080Z,2.72
2022-10-03T16:08:18.051Z,4.95
2022-10-03T16:10:58.757Z,7.07
2022-10-03T16:13:36.797Z,1.80
2022-10-03T16:16:24.540Z,1.88
2022-10-03T16:19:27.581Z,3.50
2022-10-03T16:22:34.940Z,3.45
2022-10-03T16:25:25.814Z,4.30
2022-10-03T16:28:05.111Z,4.18
2022-10-03T16:30:42.475Z,3.17
2022-10-03T16:33:12.113Z,1.90
2022-10-03T16:35:47.933Z,4.25
2022-10-03T16:38:37.063Z,3.10
2022-10-03T16:41:26.064Z,2.42
2022-10-03T16:44:00.219Z,3.35
2022-10-03T16:46:32.443Z,2.83
2022-10-03T16:49:22.068Z,1.88
2022-10-03T16:52:10.256Z,3.25
2022-10-03T16:54:37.943Z,4.18
2022-10-03T16:57:13.032Z,4.60
2022-10-03T16:59:46.823Z,5.85
2022-10-03T17:02:17.657Z,3.33
2022-10-03T17:04:49.081Z,2.58
2022-10-03T17:07:22.603Z,2.30
2022-10-03T17:09:52.795Z,2.08
2022-10-03T17:12:28.147Z,4.05
2022-10-03T17:15:03.075Z,14.05
2022-10-03T17:17:48.248Z,33.47
2022-10-03T17:20:34.850Z,21.10
2022-10-03T17:23:09.168Z,14.45
2022-10-03T17:25:59.017Z,14.68
2022-10-03T17:28:35.249Z,9.32
2022-10-03T17:31:05.474Z,13.52
2022-10-03T17:33:57.169Z,3.45
2022-10-03T17:36:24.065Z,9.38
2022-10-03T17:39:00.958Z,7.20
2022-10-03T17:41:41.243Z,4.78
2022-10-03T17:44:28.623Z,6.07
2022-10-03T17:47:01.484Z,18.23
2022-10-03T17:49:46.595Z,10.00
2022-10-03T17:52:17.927Z,12.43
2022-10-03T17:54:48.603Z,7.90
2022-10-03T17:57:25.395Z,7.35
2022-10-03T18:00:19.869Z,6.00
2022-10-03T18:03:10.631Z,12.73
2022-10-03T18:05:44.141Z,7.90
2022-10-03T18:08:31.995Z,7.60
2022-10-03T18:11:02.719Z,4.55
2022-10-03T18:13:47.440Z,3.85
2022-10-03T18:16:36.081Z,6.40
2022-10-03T18:19:21.934Z,10.65
2022-10-03T18:22:07.213Z,6.57
2022-10-03T18:24:55.809Z,5.60
2022-10-03T18:28:05.231Z,3.28
2022-10-03T18:30:46.476Z,4.15
2022-10-03T18:33:25.483Z,6.28
2022-10-03T18:36:14.223Z,1.92
2022-10-03T18:38:44.202Z,4.72
2022-10-03T18:41:16.608Z,10.85
2022-10-03T18:43:54.490Z,3.65
2022-10-03T18:46:27.877Z,7.93
2022-10-03T18:49:33.396Z,3.10
2022-10-03T18:52:18.624Z,4.80
2022-10-03T18:55:04.813Z,17.17
2022-10-03T18:58:06.808Z,7.30
2022-10-03T19:00:42.914Z,18.52
2022-10-03T19:03:17.999Z,5.25
2022-10-03T19:06:08.933Z,6.90
2022-10-03T19:08:44.329Z,3.17
2022-10-03T19:11:42.184Z,5.88
2022-10-03T19:14:23.156Z,9.15
2022-10-03T19:17:22.513Z,6.55
2022-10-03T19:20:00.285Z,9.43
2022-10-03T19:22:44.215Z,6.65
2022-10-03T19:25:21.603Z,5.22
2022-10-03T19:28:23.881Z,8.23
2022-10-03T19:31:03.687Z,11.55
2022-10-03T19:33:33.396Z,8.23
2022-10-03T19:36:05.018Z,6.32
2022-10-03T19:38:44.172Z,8.55
2022-10-03T19:41:14.396Z,5.55
2022-10-03T19:43:52.386Z,5.87
2022-10-03T19:46:43.923Z,7.00
2022-10-03T19:49:42.578Z,5.85
2022-10-03T19:52:23.315Z,4.70
2022-10-03T19:54:51.467Z,6.97
2022-10-03T19:57:55.669Z,9.90
2022-10-03T20:00:28.871Z,8.77
2022-10-03T20:03:07.133Z,7.97
2022-10-03T20:05:52.967Z,8.80
2022-10-03T20:08:44.239Z,9.05
2022-10-03T20:13:48.513Z,5.85
2022-10-03T20:16:25.921Z,8.30
2022-10-03T20:18:59.893Z,8.52
2022-10-03T20:21:29.989Z,5.07
2022-10-03T20:23:58.826Z,6.65
2022-10-03T20:26:32.977Z,5.95
2022-10-03T20:29:25.877Z,13.57
2022-10-03T20:32:03.620Z,8.68
2022-10-03T20:34:34.453Z,3.85
2022-10-03T20:37:14.451Z,11.40
2022-10-03T20:39:46.380Z,5.68
2022-10-03T20:42:20.074Z,4.43
2022-10-03T20:45:24.854Z,7.45
2022-10-03T20:48:19.970Z,5.28
2022-10-03T20:50:51.911Z,11.55
2022-10-03T20:53:27.733Z,14.30
2022-10-03T20:56:07.863Z,4.72
2022-10-03T20:58:42.931Z,5.65
2022-10-03T21:01:19.043Z,4.68
2022-10-03T21:04:05.315Z,6.63
2022-10-03T21:06:43.603Z,6.85
2022-10-03T21:09:19.953Z,3.85
2022-10-03T21:11:54.443Z,5.90
2022-10-03T21:14:29.625Z,5.43
2022-10-03T21:16:57.945Z,5.07
2022-10-03T21:19:34.330Z,5.45
2022-10-03T21:22:08.006Z,9.38
2022-10-03T21:24:35.032Z,5.82
2022-10-03T21:27:23.164Z,5.38
2022-10-03T21:29:59.752Z,5.35
2022-10-03T21:32:52.089Z,4.25
2022-10-03T21:35:27.791Z,4.80
2022-10-03T21:38:08.978Z,4.53
2022-10-03T21:43:13.642Z,4.45
2022-10-03T21:46:14.464Z,5.03
2022-10-03T21:48:59.344Z,6.32
2022-10-03T21:51:41.027Z,2.65
2022-10-03T21:54:41.134Z,4.93
2022-10-03T21:57:14.797Z,2.30
2022-10-03T22:00:11.591Z,3.78
2022-10-03T22:03:06.926Z,2.65
2022-10-03T22:05:33.931Z,6.32
2022-10-03T22:08:14.023Z,4.63
2022-10-03T22:11:07.130Z,2.40
2022-10-03T22:13:37.826Z,1.67
2022-10-03T22:16:21.246Z,3.92
2022-10-03T22:19:11.630Z,4.38
2022-10-03T22:21:57.506Z,3.67
2022-10-03T22:24:39.270Z,2.10
2022-10-03T22:27:12.029Z,3.05
2022-10-03T22:29:57.569Z,3.03
2022-10-03T22:32:41.130Z,4.20
2022-10-03T22:35:26.891Z,2.63
2022-10-03T22:37:56.386Z,1.60
2022-10-03T22:40:25.045Z,4.55
2022-10-03T22:42:55.644Z,4.88
2022-10-03T22:45:26.693Z,2.90
2022-10-03T22:47:58.421Z,3.13
2022-10-03T22:50:34.284Z,3.53
2022-10-03T22:53:03.867Z,3.03
2022-10-03T22:55:31.864Z,2.25
2022-10-03T22:58:01.193Z,4.70
2022-10-03T23:00:35.904Z,1.70
2022-10-03T23:03:09.747Z,2.78
2022-10-03T23:05:58.695Z,3.60
2022-10-03T23:09:09.164Z,3.15
2022-10-03T23:11:39.217Z,2.83
2022-10-03T23:14:17.260Z,2.27
2022-10-03T23:17:25.611Z,2.60
2022-10-03T23:20:09.575Z,4.35
2022-10-03T23:22:40.846Z,2.97
2022-10-03T23:25:19.048Z,1.92
2022-10-03T23:27:56.589Z,2.60
2022-10-03T23:30:26.297Z,3.42
2022-10-03T23:32:55.811Z,2.65
2022-10-03T23:35:31.633Z,2.38
2022-10-03T23:37:59.940Z,3.47
2022-10-03T23:40:38.621Z,2.10
2022-10-03T23:43:18.888Z,1.60
2022-10-03T23:45:47.690Z,2.40
2022-10-03T23:48:19.408Z,2.58
2022-10-03T23:50:57.591Z,3.08
2022-10-03T23:53:39.105Z,2.45
2022-10-03T23:56:28.671Z,2.60
2022-10-03T23:59:09.843Z,1.75
